Portada
METAR-TAF:

METAR-TAF

Aeroports :

Phrae, Tailàndia

latitud: 18-10N, longitud: 100-10E, altitud: 161 m

Observació

L'informe es va fer fa 49 minuts, a les 10:00 UTC
Vent 6 kt del Sud, variant entre Sud-Est i Sud/Sud-Oest
Temperatura 40°C
Humitat 20%
Pressió 1004 hPa
Visibilitat: 3000 m
calitja

METAR: VTCP 301000Z 18006KT 130V210 3000 HZ NSC 40/13 Q1004 NOSIG

Hora: 17:49 (10:49 UTC)

Pronòstic

L'informe es va fer fa 5 hores i 49 minuts, a les 05:00 UTC
Pronòstic vàlid del 30 a les 06 UTC al 31 a les 06 UTC
Vent 5 kt del Sud-Oest
Visibilitat: 3000 m
calitja

TAF: VTCP 300500Z 3006/3106 23005KT 3000 HZ NSC

Observacions i pronòstics meteorològics de més de 4000 aeroports (METAR i TAF).

Les estacions disponibles són els punts grocs i vermells al mapa.

Posi el ratolí al punt desitjat per veure el nom de l'estació.

Feu clic per veure les observacions i els pronòstics meteorològics.

Per canviar el mapa: feu clic els botons verds amb una creu de color negre per apropar; al botó verd amb un guió per allunyar la imatge; o en les fletxes verdes per a mapes adjacents.


METAR-TAF: